Main page
METAR-TAF:

METAR-TAF

Airports :

Kermanshah, Iran

Kermanshah Airport

latitude: 34-16N, longitude: 047-07E, elevation: 1320 m

Current weather observation

The report was made 10 minutes ago, at 03:30 UTC
Wind 4 kt from the South/Southeast
Temperature 15°C
Humidity 72%
Pressure 1017 hPa
Visibility: 8000 m
Scattered clouds at a height of 4000 ft
Broken clouds at a height of 8000 ft

METAR: OICC 290330Z 15004KT 8000 SCT040 BKN080 15/10 Q1017 A3004 NOSIG

Time: 08:10 (03:40 UTC)


TAF: missing

Weather observations and forecasts of more than 4000 airports (METAR and TAF reports).

The available stations are represented by yellow and red dots on the map.

Hover mouse over dot to see the name of the station.

Then click to see weather observations and forecasts.

To change the map : click on the green buttons with a black cross to zoom in, on the green button with a dash to zoom out, or on the green arrows for adjacent maps.


METAR-TAF: